createdAt,value
2022-08-02T00:00:34.811Z,67.80
2022-08-02T00:03:02.703Z,67.80
2022-08-02T00:05:32.090Z,67.90
2022-08-02T00:07:59.975Z,68.00
2022-08-02T00:10:28.142Z,68.00
2022-08-02T00:12:56.261Z,68.00
2022-08-02T00:15:24.137Z,68.00
2022-08-02T00:17:51.994Z,68.00
2022-08-02T00:20:19.955Z,68.10
2022-08-02T00:22:49.214Z,68.20
2022-08-02T00:25:17.110Z,68.30
2022-08-02T00:27:45.008Z,68.50
2022-08-02T00:30:13.508Z,68.50
2022-08-02T00:32:41.548Z,68.60
2022-08-02T00:35:10.516Z,68.60
2022-08-02T00:37:40.739Z,68.60
2022-08-02T00:40:11.365Z,68.60
2022-08-02T00:42:39.930Z,68.60
2022-08-02T00:45:09.070Z,68.70
2022-08-02T00:47:37.058Z,68.80
2022-08-02T00:50:05.841Z,68.90
2022-08-02T00:52:33.756Z,68.90
2022-08-02T00:55:01.632Z,68.90
2022-08-02T00:57:31.088Z,68.90
2022-08-02T00:59:58.959Z,68.90
2022-08-02T01:02:26.931Z,69.00
2022-08-02T01:04:54.846Z,69.00
2022-08-02T01:07:22.740Z,69.30
2022-08-02T01:09:50.838Z,69.30
2022-08-02T01:12:18.808Z,69.40
2022-08-02T01:14:51.112Z,69.50
2022-08-02T01:17:25.629Z,69.60
2022-08-02T01:20:05.638Z,69.70
2022-08-02T01:23:01.964Z,69.80
2022-08-02T01:25:54.477Z,70.00
2022-08-02T01:28:39.669Z,70.00
2022-08-02T01:31:17.196Z,70.00
2022-08-02T01:33:49.665Z,70.00
2022-08-02T01:36:19.855Z,70.00
2022-08-02T01:38:51.107Z,70.00
2022-08-02T01:41:21.106Z,70.10
2022-08-02T01:43:54.854Z,70.20
2022-08-02T01:46:24.064Z,70.30
2022-08-02T01:48:54.199Z,70.40
2022-08-02T01:51:43.949Z,70.40
2022-08-02T01:54:15.476Z,70.50
2022-08-02T01:56:44.870Z,70.50
2022-08-02T01:59:17.798Z,70.50
2022-08-02T02:01:49.032Z,70.50
2022-08-02T02:04:18.439Z,70.60
2022-08-02T02:06:47.543Z,70.60
2022-08-02T02:09:17.648Z,70.60
2022-08-02T02:12:13.152Z,70.60
2022-08-02T02:14:38.206Z,70.60
2022-08-02T02:17:07.527Z,70.60
2022-08-02T02:19:37.596Z,70.60
2022-08-02T02:22:05.598Z,70.60
2022-08-02T02:24:35.702Z,70.70
2022-08-02T02:27:08.900Z,70.80
2022-08-02T02:29:40.624Z,70.80
2022-08-02T02:32:09.234Z,70.80
2022-08-02T02:34:40.661Z,70.80
2022-08-02T02:37:15.721Z,70.80
2022-08-02T02:39:45.586Z,71.00
2022-08-02T02:42:17.108Z,71.00
2022-08-02T02:44:47.943Z,71.00
2022-08-02T02:47:17.503Z,71.00
2022-08-02T02:49:48.092Z,71.00
2022-08-02T02:52:17.393Z,71.00
2022-08-02T02:54:49.099Z,71.00
2022-08-02T02:57:17.989Z,71.00
2022-08-02T02:59:49.266Z,71.10
2022-08-02T03:02:18.881Z,71.20
2022-08-02T03:04:56.426Z,71.20
2022-08-02T03:07:25.961Z,71.20
2022-08-02T03:09:55.084Z,71.20
2022-08-02T03:12:30.986Z,71.30
2022-08-02T03:15:04.103Z,71.40
2022-08-02T03:17:43.242Z,71.40
2022-08-02T03:20:13.561Z,71.40
2022-08-02T03:22:41.966Z,71.40
2022-08-02T03:25:10.769Z,71.40
2022-08-02T03:27:39.186Z,71.30
2022-08-02T03:30:11.510Z,71.30
2022-08-02T03:32:41.632Z,71.30
2022-08-02T03:35:12.892Z,71.30
2022-08-02T03:37:44.185Z,71.50
2022-08-02T03:40:14.146Z,71.60
2022-08-02T03:42:42.760Z,71.70
2022-08-02T03:45:14.733Z,71.70
2022-08-02T03:47:43.550Z,71.70
2022-08-02T03:50:13.470Z,71.60
2022-08-02T03:52:44.008Z,71.60
2022-08-02T03:55:13.922Z,71.70
2022-08-02T03:57:43.165Z,71.80
2022-08-02T04:00:27.424Z,71.70
2022-08-02T04:02:55.357Z,71.60
2022-08-02T04:05:23.446Z,71.60
2022-08-02T04:08:02.551Z,71.60
2022-08-02T04:10:57.277Z,71.60
2022-08-02T04:13:31.796Z,71.70
2022-08-02T04:16:11.366Z,71.80
2022-08-02T04:18:44.269Z,71.90
2022-08-02T04:21:18.203Z,72.00
2022-08-02T04:23:48.342Z,72.10
2022-08-02T04:26:17.331Z,72.20
2022-08-02T04:28:47.149Z,72.20
2022-08-02T04:31:18.582Z,72.20
2022-08-02T04:33:47.360Z,72.20
2022-08-02T04:36:15.462Z,72.20
2022-08-02T04:38:59.956Z,72.20
2022-08-02T04:41:43.675Z,72.30
2022-08-02T04:44:12.753Z,72.30
2022-08-02T04:46:44.064Z,72.30
2022-08-02T04:49:12.390Z,72.20
2022-08-02T04:51:42.211Z,72.30
2022-08-02T04:54:11.160Z,72.30
2022-08-02T04:56:39.349Z,72.30
2022-08-02T04:59:07.803Z,72.20
2022-08-02T05:01:36.038Z,72.20
2022-08-02T05:04:05.582Z,72.30
2022-08-02T05:06:33.998Z,72.40
2022-08-02T05:09:01.883Z,72.40
2022-08-02T05:11:36.519Z,72.40
2022-08-02T05:14:06.138Z,72.40
2022-08-02T05:16:34.172Z,72.30
2022-08-02T05:19:02.756Z,72.30
2022-08-02T05:21:32.568Z,72.50
2022-08-02T05:24:00.514Z,72.80
2022-08-02T05:26:28.440Z,72.90
2022-08-02T05:28:56.359Z,72.10
2022-08-02T05:31:24.253Z,70.60
2022-08-02T05:33:52.519Z,68.70
2022-08-02T05:36:21.383Z,66.60
2022-08-02T05:38:51.769Z,65.20
2022-08-02T05:41:20.250Z,65.20
2022-08-02T05:43:48.357Z,65.10
2022-08-02T05:46:16.352Z,65.20
2022-08-02T05:48:45.651Z,65.80
2022-08-02T05:51:18.820Z,65.90
2022-08-02T05:53:50.736Z,67.20
2022-08-02T05:56:25.505Z,66.80
2022-08-02T05:58:57.719Z,65.50
2022-08-02T06:01:33.445Z,63.40
2022-08-02T06:04:06.255Z,61.30
2022-08-02T06:06:34.917Z,59.30
2022-08-02T06:09:09.651Z,57.60
2022-08-02T06:14:09.673Z,54.80
2022-08-02T06:16:42.388Z,53.50
2022-08-02T06:19:12.609Z,51.60
2022-08-02T06:22:34.751Z,50.90
2022-08-02T06:24:32.201Z,51.60
2022-08-02T06:27:03.120Z,53.00
2022-08-02T06:29:37.011Z,54.30
2022-08-02T06:32:08.704Z,55.60
2022-08-02T06:34:38.110Z,56.70
2022-08-02T06:37:14.988Z,57.80
2022-08-02T06:39:46.660Z,58.70
2022-08-02T06:42:25.062Z,59.40
2022-08-02T06:44:58.077Z,60.10
2022-08-02T06:47:26.853Z,61.00
2022-08-02T06:49:56.265Z,61.50
2022-08-02T06:52:28.713Z,62.10
2022-08-02T06:54:58.918Z,62.70
2022-08-02T06:57:28.448Z,63.20
2022-08-02T06:59:56.874Z,63.60
2022-08-02T07:02:25.017Z,64.00
2022-08-02T07:04:52.977Z,64.20
2022-08-02T07:07:20.880Z,64.60
2022-08-02T07:09:57.248Z,64.70
2022-08-02T07:12:32.359Z,65.00
2022-08-02T07:15:00.382Z,65.10
2022-08-02T07:17:28.629Z,65.30
2022-08-02T07:19:56.807Z,65.50
2022-08-02T07:22:26.789Z,65.70
2022-08-02T07:24:56.191Z,65.80
2022-08-02T07:27:24.812Z,66.00
2022-08-02T07:29:54.452Z,66.10
2022-08-02T07:32:25.003Z,66.00
2022-08-02T07:34:54.155Z,66.10
2022-08-02T07:37:35.677Z,66.10
2022-08-02T07:40:15.173Z,66.10
2022-08-02T07:42:49.238Z,66.10
2022-08-02T07:45:18.678Z,66.10
2022-08-02T07:47:47.127Z,66.20
2022-08-02T07:50:17.850Z,66.10
2022-08-02T07:52:46.492Z,66.20
2022-08-02T07:55:15.879Z,66.10
2022-08-02T07:57:46.676Z,66.00
2022-08-02T08:00:17.133Z,65.70
2022-08-02T08:02:47.068Z,65.60
2022-08-02T08:05:15.316Z,65.60
2022-08-02T08:07:43.280Z,65.60
2022-08-02T08:10:12.128Z,65.60
2022-08-02T08:12:40.199Z,65.40
2022-08-02T08:15:09.075Z,65.30
2022-08-02T08:17:37.450Z,65.20
2022-08-02T08:20:07.946Z,65.00
2022-08-02T08:22:35.856Z,64.70
2022-08-02T08:25:04.112Z,64.60
2022-08-02T08:27:32.247Z,64.40
2022-08-02T08:30:00.158Z,64.40
2022-08-02T08:32:28.135Z,64.30
2022-08-02T08:34:56.030Z,64.10
2022-08-02T08:37:25.272Z,63.90
2022-08-02T08:39:56.225Z,63.90
2022-08-02T08:42:27.390Z,63.90
2022-08-02T08:44:56.065Z,63.70
2022-08-02T08:47:25.421Z,63.60
2022-08-02T08:49:58.019Z,63.40
2022-08-02T08:52:28.522Z,63.30
2022-08-02T08:54:59.253Z,63.20
2022-08-02T08:57:29.887Z,63.10
2022-08-02T08:59:58.105Z,63.00
2022-08-02T09:02:28.513Z,63.00
2022-08-02T09:04:57.336Z,62.90
2022-08-02T09:07:25.317Z,62.80
2022-08-02T09:09:54.539Z,62.30
2022-08-02T09:12:24.990Z,62.20
2022-08-02T09:14:52.993Z,61.90
2022-08-02T09:17:22.069Z,61.70
2022-08-02T09:20:07.774Z,61.50
2022-08-02T09:22:35.707Z,61.00
2022-08-02T09:25:06.194Z,61.00
2022-08-02T09:27:37.983Z,60.80
2022-08-02T09:30:14.325Z,60.60
2022-08-02T09:32:47.888Z,60.40
2022-08-02T09:36:06.796Z,60.40
2022-08-02T09:38:20.825Z,60.20
2022-08-02T09:40:50.090Z,59.90
2022-08-02T09:43:18.076Z,60.20
2022-08-02T09:45:46.024Z,60.00
2022-08-02T09:48:14.175Z,60.00
2022-08-02T09:50:45.463Z,59.90
2022-08-02T09:53:14.275Z,59.60
2022-08-02T09:55:42.503Z,59.60
2022-08-02T09:58:21.662Z,59.60
2022-08-02T10:00:57.178Z,59.50
2022-08-02T10:03:34.971Z,59.40
2022-08-02T10:06:04.256Z,59.20
2022-08-02T10:08:33.795Z,59.20
2022-08-02T10:11:02.126Z,59.20
2022-08-02T10:13:33.598Z,59.10
2022-08-02T10:16:03.400Z,59.00
2022-08-02T10:18:40.618Z,59.00
2022-08-02T10:21:14.368Z,59.00
2022-08-02T10:23:45.808Z,58.90
2022-08-02T10:26:18.594Z,58.90
2022-08-02T10:28:50.358Z,58.70
2022-08-02T10:31:23.312Z,58.50
2022-08-02T10:33:53.552Z,58.60
2022-08-02T10:36:23.648Z,58.50
2022-08-02T10:38:51.823Z,58.40
2022-08-02T10:41:48.299Z,58.10
2022-08-02T10:44:26.410Z,57.70
2022-08-02T10:47:15.398Z,57.50
2022-08-02T10:49:51.543Z,57.10
2022-08-02T10:52:19.884Z,57.00
2022-08-02T10:54:56.733Z,57.00
2022-08-02T10:57:26.138Z,56.80
2022-08-02T10:59:59.144Z,56.90
2022-08-02T11:02:39.667Z,56.70
2022-08-02T11:05:17.172Z,56.40
2022-08-02T11:07:47.865Z,56.20
2022-08-02T11:10:35.494Z,55.90
2022-08-02T11:13:12.354Z,55.70
2022-08-02T11:16:05.365Z,55.70
2022-08-02T11:19:03.733Z,55.40
2022-08-02T11:21:36.862Z,55.50
2022-08-02T11:24:28.709Z,55.40
2022-08-02T11:26:57.581Z,54.60
2022-08-02T11:29:38.832Z,55.10
2022-08-02T11:32:08.637Z,55.00
2022-08-02T11:34:38.281Z,55.00
2022-08-02T11:37:07.896Z,54.80
2022-08-02T11:39:35.856Z,54.60
2022-08-02T11:42:03.979Z,54.50
2022-08-02T11:44:41.840Z,54.20
2022-08-02T11:47:09.903Z,54.20
2022-08-02T11:49:38.510Z,54.10
2022-08-02T11:52:11.055Z,53.90
2022-08-02T11:54:42.114Z,53.90
2022-08-02T11:57:19.350Z,53.80
2022-08-02T11:59:49.327Z,53.60
2022-08-02T12:02:18.775Z,53.70
2022-08-02T12:04:57.370Z,53.40
2022-08-02T12:07:34.765Z,53.30
2022-08-02T12:10:06.879Z,53.00
2022-08-02T12:12:34.960Z,53.00
2022-08-02T12:15:02.971Z,53.00
2022-08-02T12:17:48.546Z,52.60
2022-08-02T12:20:17.258Z,52.70
2022-08-02T12:22:46.680Z,52.60
2022-08-02T12:25:33.679Z,52.50
2022-08-02T12:28:17.669Z,52.30
2022-08-02T12:30:53.765Z,52.10
2022-08-02T12:33:22.922Z,52.10
2022-08-02T12:35:51.021Z,52.00
2022-08-02T12:38:20.655Z,51.90
2022-08-02T12:40:49.071Z,51.90
2022-08-02T12:43:23.422Z,51.90
2022-08-02T12:45:53.862Z,52.00
2022-08-02T12:48:37.420Z,52.00
2022-08-02T12:51:25.593Z,52.00
2022-08-02T12:54:17.832Z,51.90
2022-08-02T12:56:46.421Z,51.90
2022-08-02T12:59:14.536Z,51.80
2022-08-02T13:01:42.606Z,51.80
2022-08-02T13:04:13.741Z,51.80
2022-08-02T13:06:44.514Z,52.00
2022-08-02T13:09:17.733Z,51.80
2022-08-02T13:11:46.192Z,51.70
2022-08-02T13:14:15.076Z,51.80
2022-08-02T13:16:44.502Z,51.70
2022-08-02T13:19:13.184Z,51.40
2022-08-02T13:22:01.343Z,51.30
2022-08-02T13:24:41.348Z,51.30
2022-08-02T13:27:20.537Z,51.20
2022-08-02T13:29:49.730Z,51.20
2022-08-02T13:32:18.048Z,50.80
2022-08-02T13:34:46.090Z,50.90
2022-08-02T13:37:14.470Z,50.70
2022-08-02T13:39:55.366Z,50.70
2022-08-02T13:42:32.175Z,50.30
2022-08-02T13:45:00.076Z,50.50
2022-08-02T13:47:36.319Z,50.50
2022-08-02T13:50:05.031Z,50.60
2022-08-02T13:52:34.722Z,50.50
2022-08-02T13:55:04.526Z,50.20
2022-08-02T13:57:40.572Z,50.00
2022-08-02T14:00:11.100Z,49.90
2022-08-02T14:02:40.618Z,50.00
2022-08-02T14:05:09.483Z,49.80
2022-08-02T14:07:37.435Z,49.60
2022-08-02T14:10:07.875Z,49.60
2022-08-02T14:12:35.791Z,49.40
2022-08-02T14:15:03.786Z,49.10
2022-08-02T14:17:31.772Z,49.40
2022-08-02T14:19:59.632Z,49.40
2022-08-02T14:22:28.653Z,49.40
2022-08-02T14:24:56.560Z,49.30
2022-08-02T14:27:25.784Z,49.40
2022-08-02T14:29:53.670Z,49.50
2022-08-02T14:32:21.606Z,49.50
2022-08-02T14:35:21.296Z,49.50
2022-08-02T14:37:49.229Z,49.40
2022-08-02T14:40:30.687Z,49.50
2022-08-02T14:43:01.256Z,49.40
2022-08-02T14:45:36.963Z,49.50
2022-08-02T14:48:08.555Z,49.60
2022-08-02T14:50:36.634Z,49.70
2022-08-02T14:53:04.543Z,49.70
2022-08-02T14:55:32.512Z,49.60
2022-08-02T14:58:01.843Z,49.50
2022-08-02T15:00:29.948Z,49.60
2022-08-02T15:02:58.031Z,49.60
2022-08-02T15:05:25.990Z,49.50
2022-08-02T15:07:53.932Z,49.60
2022-08-02T15:10:22.243Z,49.70
2022-08-02T15:12:50.192Z,49.60
2022-08-02T15:15:19.645Z,49.60
2022-08-02T15:17:47.698Z,49.70
2022-08-02T15:20:25.587Z,49.80
2022-08-02T15:22:54.165Z,49.40
2022-08-02T15:25:22.593Z,49.70
2022-08-02T15:27:50.560Z,49.60
2022-08-02T15:30:20.447Z,49.60
2022-08-02T15:32:52.917Z,49.60
2022-08-02T15:35:22.146Z,49.50
2022-08-02T15:37:50.116Z,49.30
2022-08-02T15:40:18.211Z,49.50
2022-08-02T15:42:46.192Z,49.40
2022-08-02T15:45:15.417Z,49.40
2022-08-02T15:47:50.438Z,49.20
2022-08-02T15:50:19.082Z,49.20
2022-08-02T15:52:47.169Z,49.10
2022-08-02T15:55:15.410Z,49.20
2022-08-02T15:57:43.306Z,49.30
2022-08-02T16:00:18.018Z,49.40
2022-08-02T16:02:48.398Z,49.40
2022-08-02T16:05:18.238Z,49.40
2022-08-02T16:07:48.083Z,49.20
2022-08-02T16:10:26.113Z,49.10
2022-08-02T16:13:14.087Z,49.20
2022-08-02T16:15:42.028Z,49.30
2022-08-02T16:18:11.321Z,49.30
2022-08-02T16:20:39.591Z,49.30
2022-08-02T16:23:07.716Z,49.20
2022-08-02T16:25:40.087Z,49.10
2022-08-02T16:28:09.856Z,49.10
2022-08-02T16:30:37.725Z,49.00
2022-08-02T16:33:05.844Z,49.10
2022-08-02T16:35:35.853Z,49.00
2022-08-02T16:38:03.795Z,48.90
2022-08-02T16:40:34.202Z,48.90
2022-08-02T16:43:02.271Z,48.90
2022-08-02T16:45:37.171Z,48.90
2022-08-02T16:48:07.682Z,48.80
2022-08-02T16:50:38.851Z,48.90
2022-08-02T16:53:07.801Z,48.80
2022-08-02T16:55:36.304Z,48.70
2022-08-02T16:58:04.314Z,48.60
2022-08-02T17:00:38.055Z,48.40
2022-08-02T17:03:14.382Z,48.20
2022-08-02T17:05:56.323Z,48.30
2022-08-02T17:08:32.147Z,48.30
2022-08-02T17:11:03.577Z,48.20
2022-08-02T17:13:34.326Z,48.30
2022-08-02T17:16:25.872Z,48.40
2022-08-02T17:18:55.246Z,48.50
2022-08-02T17:21:24.751Z,48.50
2022-08-02T17:24:07.618Z,48.00
2022-08-02T17:26:37.432Z,48.30
2022-08-02T17:29:15.477Z,48.30
2022-08-02T17:32:04.791Z,48.30
2022-08-02T17:34:34.433Z,48.30
2022-08-02T17:37:05.598Z,48.30
2022-08-02T17:39:43.238Z,48.30
2022-08-02T17:42:20.284Z,48.30
2022-08-02T17:44:52.799Z,48.30
2022-08-02T17:47:21.540Z,48.30
2022-08-02T17:49:50.064Z,48.20
2022-08-02T17:52:50.105Z,48.10
2022-08-02T17:55:13.625Z,48.20
2022-08-02T18:00:33.817Z,48.10
2022-08-02T18:03:06.104Z,48.10
2022-08-02T18:05:41.691Z,48.10
2022-08-02T18:08:23.950Z,48.10
2022-08-02T18:10:52.449Z,47.90
2022-08-02T18:13:20.490Z,48.00
2022-08-02T18:15:48.738Z,47.90
2022-08-02T18:18:19.303Z,48.00
2022-08-02T18:20:58.491Z,48.10
2022-08-02T18:23:49.536Z,48.10
2022-08-02T18:26:27.318Z,48.10
2022-08-02T18:28:55.459Z,48.10
2022-08-02T18:31:25.015Z,48.20
2022-08-02T18:33:58.140Z,48.30
2022-08-02T18:36:29.075Z,48.40
2022-08-02T18:38:58.485Z,48.50
2022-08-02T18:41:26.496Z,48.50
2022-08-02T18:43:56.694Z,48.60
2022-08-02T18:46:26.534Z,48.70
2022-08-02T18:48:58.569Z,48.80
2022-08-02T18:51:41.259Z,49.00
2022-08-02T18:54:10.743Z,49.10
2022-08-02T18:56:38.892Z,49.30
2022-08-02T18:59:07.860Z,49.40
2022-08-02T19:01:46.885Z,49.50
2022-08-02T19:04:27.006Z,49.70
2022-08-02T19:06:59.512Z,49.80
2022-08-02T19:09:40.234Z,50.10
2022-08-02T19:12:11.301Z,50.30
2022-08-02T19:14:39.842Z,50.50
2022-08-02T19:17:16.130Z,50.80
2022-08-02T19:19:56.270Z,50.90
2022-08-02T19:22:24.643Z,51.00
2022-08-02T19:27:47.518Z,51.30
2022-08-02T19:30:15.838Z,51.40
2022-08-02T19:32:58.902Z,51.50
2022-08-02T19:35:30.705Z,51.70
2022-08-02T19:38:08.548Z,51.80
2022-08-02T19:40:38.921Z,51.90
2022-08-02T19:44:20.789Z,52.10
2022-08-02T19:45:57.491Z,52.20
2022-08-02T19:48:28.214Z,52.30
2022-08-02T19:51:00.722Z,52.50
2022-08-02T19:53:47.211Z,52.60
2022-08-02T19:56:24.696Z,52.70
2022-08-02T19:58:54.985Z,52.70
2022-08-02T20:01:37.540Z,52.80
2022-08-02T20:04:13.362Z,53.00
2022-08-02T20:06:45.313Z,53.10
2022-08-02T20:09:33.469Z,53.10
2022-08-02T20:12:16.707Z,53.20
2022-08-02T20:17:33.766Z,53.50
2022-08-02T20:20:01.696Z,53.40
2022-08-02T20:22:29.703Z,53.50
2022-08-02T20:24:57.672Z,53.70
2022-08-02T20:27:30.137Z,53.70
2022-08-02T20:29:58.177Z,53.70
2022-08-02T20:32:26.417Z,53.90
2022-08-02T20:34:54.361Z,53.90
2022-08-02T20:37:56.155Z,54.00
2022-08-02T20:40:16.807Z,54.00
2022-08-02T20:42:48.390Z,54.10
2022-08-02T20:45:16.856Z,54.20
2022-08-02T20:47:49.851Z,54.30
2022-08-02T20:50:38.462Z,54.30
2022-08-02T20:53:08.135Z,54.40
2022-08-02T20:55:53.446Z,54.50
2022-08-02T20:58:26.476Z,54.60
2022-08-02T21:00:58.573Z,54.80
2022-08-02T21:03:32.262Z,55.00
2022-08-02T21:06:07.742Z,55.20
2022-08-02T21:08:36.082Z,55.30
2022-08-02T21:11:09.092Z,55.40
2022-08-02T21:13:46.999Z,55.60
2022-08-02T21:16:18.373Z,55.70
2022-08-02T21:18:48.392Z,55.70
2022-08-02T21:21:18.341Z,55.90
2022-08-02T21:23:48.912Z,56.00
2022-08-02T21:26:28.113Z,56.10
2022-08-02T21:29:01.019Z,56.20
2022-08-02T21:31:33.645Z,56.30
2022-08-02T21:34:07.557Z,56.30
2022-08-02T21:36:50.979Z,56.30
2022-08-02T21:39:19.254Z,56.40
2022-08-02T21:41:48.603Z,56.60
2022-08-02T21:44:19.584Z,56.70
2022-08-02T21:46:49.085Z,56.90
2022-08-02T21:49:18.344Z,56.90
2022-08-02T21:51:49.156Z,57.00
2022-08-02T21:54:20.141Z,57.10
2022-08-02T21:56:49.745Z,57.10
2022-08-02T21:59:26.252Z,57.10
2022-08-02T22:01:56.970Z,57.20
2022-08-02T22:04:25.927Z,57.30
2022-08-02T22:06:55.085Z,57.40
2022-08-02T22:09:42.266Z,57.50
2022-08-02T22:12:16.568Z,57.60
2022-08-02T22:14:54.581Z,57.60
2022-08-02T22:17:49.817Z,57.60
2022-08-02T22:20:14.498Z,57.70
2022-08-02T22:22:43.493Z,57.70
2022-08-02T22:25:26.803Z,57.80
2022-08-02T22:28:35.209Z,57.80
2022-08-02T22:30:51.169Z,57.80
2022-08-02T22:33:42.329Z,57.90
2022-08-02T22:36:15.329Z,58.00
2022-08-02T22:42:02.312Z,58.20
2022-08-02T22:44:20.107Z,58.30
2022-08-02T22:46:50.055Z,58.30
2022-08-02T22:49:38.750Z,58.40
2022-08-02T22:52:07.102Z,58.50
2022-08-02T22:54:35.045Z,58.60
2022-08-02T22:57:03.066Z,58.60
2022-08-02T22:58:41.285Z,48.10
2022-08-02T22:58:47.819Z,51.10
2022-08-02T22:58:54.954Z,53.40
2022-08-02T22:59:39.113Z,58.70
2022-08-02T23:02:09.779Z,58.80
2022-08-02T23:04:38.646Z,58.80
2022-08-02T23:07:06.591Z,59.00
2022-08-02T23:09:34.571Z,59.00
2022-08-02T23:12:02.618Z,59.00
2022-08-02T23:14:30.597Z,59.00
2022-08-02T23:17:15.885Z,59.00
2022-08-02T23:19:53.975Z,59.10
2022-08-02T23:22:29.688Z,59.30
2022-08-02T23:25:01.377Z,59.40
2022-08-02T23:27:29.783Z,59.40
2022-08-02T23:29:58.432Z,59.40
2022-08-02T23:32:26.491Z,59.40
2022-08-02T23:34:56.361Z,59.50
2022-08-02T23:37:24.847Z,59.60
2022-08-02T23:39:53.651Z,59.60
2022-08-02T23:42:23.173Z,59.60
2022-08-02T23:44:51.120Z,59.70
2022-08-02T23:47:19.031Z,59.70
2022-08-02T23:49:47.306Z,59.70
2022-08-02T23:52:16.795Z,59.80
2022-08-02T23:54:45.105Z,59.90
2022-08-02T23:57:21.074Z,59.90
2022-08-02T23:59:51.117Z,59.80
